Time;durP1;ratioP1;P1;durP2;ratioP2;P2;SDS_P1;SDS_P2;PMS_P1;PMS_P2;Temp;Humidity;BMP_temperature;BMP_pressure;BME280_temperature;BME280_humidity;BME280_pressure;Samples;Min_cycle;Max_cycle;Signal;HPM_P1;HPM_P2
2023/08/11 00:01:05;;;;;;;15.60;7.28;;;;;;;13.99;90.97;101388.84;4993570;28;20042;-63
2023/08/11 00:03:34;;;;;;;15.93;6.72;;;;;;;13.98;90.84;101387.16;5003873;28;20658;-62
2023/08/11 00:06:01;;;;;;;14.40;7.20;;;;;;;13.97;91.09;101388.09;4995192;28;20120;-63
2023/08/11 00:08:28;;;;;;;15.80;7.55;;;;;;;13.96;91.51;101391.69;4991698;28;20089;-63
2023/08/11 00:10:56;;;;;;;12.32;6.72;;;;;;;13.93;91.93;101389.22;4995647;28;20050;-62
2023/08/11 00:13:23;;;;;;;12.88;7.40;;;;;;;13.91;91.26;101386.69;4996208;28;20080;-64
2023/08/11 00:15:50;;;;;;;13.13;7.32;;;;;;;13.87;91.85;101387.81;5004790;28;20160;-63
2023/08/11 00:18:18;;;;;;;12.38;7.35;;;;;;;13.85;92.54;101391.50;4997331;28;20045;-63
2023/08/11 00:20:45;;;;;;;15.27;6.57;;;;;;;13.83;93.38;101390.75;5004846;28;20100;-63
2023/08/11 00:23:12;;;;;;;14.25;7.47;;;;;;;13.81;93.30;101392.59;5001640;28;20057;-63
2023/08/11 00:25:40;;;;;;;12.40;7.35;;;;;;;13.77;93.27;101394.59;5001492;28;20082;-62
2023/08/11 00:28:08;;;;;;;11.40;6.95;;;;;;;13.75;94.12;101385.91;5001839;28;20124;-65
2023/08/11 00:30:36;;;;;;;12.93;7.72;;;;;;;13.74;94.30;101388.66;4996721;28;20092;-63
2023/08/11 00:33:03;;;;;;;14.90;7.50;;;;;;;13.72;94.30;101391.38;4999114;28;20112;-63
2023/08/11 00:35:31;;;;;;;14.48;7.55;;;;;;;13.72;93.94;101387.88;4995202;28;20054;-64
2023/08/11 00:37:58;;;;;;;14.43;7.97;;;;;;;13.71;94.04;101384.38;5001588;28;20571;-64
2023/08/11 00:40:26;;;;;;;20.10;8.35;;;;;;;13.71;94.53;101388.81;4998366;28;20058;-63
2023/08/11 00:42:53;;;;;;;16.95;8.05;;;;;;;13.69;94.76;101391.56;4994373;28;20096;-63
2023/08/11 00:45:20;;;;;;;14.57;8.50;;;;;;;13.67;94.81;101394.28;5004914;28;20104;-64
2023/08/11 00:47:48;;;;;;;15.90;8.20;;;;;;;13.68;94.76;101392.50;4998525;28;20054;-63
2023/08/11 00:50:16;;;;;;;13.85;8.68;;;;;;;13.69;94.73;101391.56;4994587;28;20112;-65
2023/08/11 00:52:45;;;;;;;17.58;8.38;;;;;;;13.67;94.63;101394.28;4998550;28;20130;-63
2023/08/11 00:55:13;;;;;;;17.98;8.35;;;;;;;13.67;94.80;101396.94;4997131;28;20148;-64
2023/08/11 00:57:40;;;;;;;16.58;8.43;;;;;;;13.67;94.85;101399.56;4996774;28;20134;-64
2023/08/11 01:00:15;;;;;;;18.13;8.55;;;;;;;13.65;95.15;101406.78;5007087;28;20049;-63
2023/08/11 01:02:43;;;;;;;17.08;8.65;;;;;;;13.65;95.40;101404.13;4995413;28;20061;-63
2023/08/11 01:05:14;;;;;;;14.13;8.68;;;;;;;13.62;96.30;101401.66;4999619;28;20104;-65
2023/08/11 01:08:05;;;;;;;21.17;8.63;;;;;;;13.61;96.70;101407.03;4997093;28;20084;-64
2023/08/11 01:10:55;;;;;;;11.90;8.27;;;;;;;13.60;96.88;101406.19;5005659;28;20088;-65
2023/08/11 01:13:23;;;;;;;12.70;7.70;;;;;;;13.57;97.08;101403.72;5000349;28;20355;-63
2023/08/11 01:15:58;;;;;;;16.08;7.90;;;;;;;13.55;97.57;101410.03;5002378;28;20046;-64
2023/08/11 01:18:26;;;;;;;17.27;8.20;;;;;;;13.54;97.75;101413.63;4995321;28;20128;-64
2023/08/11 01:21:06;;;;;;;17.55;8.73;;;;;;;13.52;98.34;101403.16;5004704;28;20428;-65
2023/08/11 01:23:34;;;;;;;17.77;8.32;;;;;;;13.51;97.94;101404.09;5006935;28;20578;-65
2023/08/11 01:26:01;;;;;;;21.10;9.13;;;;;;;13.51;98.38;101398.81;4998283;28;20085;-64
2023/08/11 01:28:28;;;;;;;13.35;8.43;;;;;;;13.48;98.54;101404.25;4997513;28;20059;-64
2023/08/11 01:30:56;;;;;;;15.30;8.57;;;;;;;13.46;98.68;101398.19;5007044;28;20162;-63
2023/08/11 01:33:23;;;;;;;14.68;7.72;;;;;;;13.45;98.89;101404.44;5000640;28;20141;-64
2023/08/11 01:35:50;;;;;;;17.92;8.50;;;;;;;13.43;99.71;101401.88;4999454;28;20065;-63
2023/08/11 01:39:09;;;;;;;13.57;8.90;;;;;;;13.43;99.97;101401.03;4997394;28;20533;-65
2023/08/11 01:42:25;;;;;;;13.48;7.22;;;;;;;13.41;100.00;101395.81;5005044;28;20453;-64
2023/08/11 01:44:52;;;;;;;12.57;7.85;;;;;;;13.40;99.96;101395.91;5004718;28;20076;-63
2023/08/11 01:47:19;;;;;;;20.67;8.20;;;;;;;13.39;100.00;101403.00;4993533;28;20335;-64
2023/08/11 01:49:47;;;;;;;26.85;8.45;;;;;;;13.39;100.00;101402.16;4998563;28;20047;-66
2023/08/11 01:52:15;;;;;;;18.20;8.80;;;;;;;13.37;100.00;101393.44;5002953;28;20126;-62
2023/08/11 01:54:43;;;;;;;21.83;8.85;;;;;;;13.36;100.00;101395.25;4999142;28;20081;-62
2023/08/11 01:57:11;;;;;;;15.18;8.15;;;;;;;13.36;100.00;101394.38;4980915;28;20140;-64
2023/08/11 01:59:38;;;;;;;13.65;8.20;;;;;;;13.36;100.00;101383.81;4999302;28;20076;-63
2023/08/11 02:02:05;;;;;;;13.73;7.28;;;;;;;13.35;100.00;101398.84;5000219;28;20089;-64
2023/08/11 02:04:33;;;;;;;17.45;8.32;;;;;;;13.34;100.00;101402.44;4997232;28;20088;-64
2023/08/11 02:07:00;;;;;;;13.88;7.13;;;;;;;13.33;100.00;101405.16;4996852;28;20085;-63
2023/08/11 02:09:27;;;;;;;12.05;7.18;;;;;;;13.33;100.00;101399.88;4996913;28;20499;-63
2023/08/11 02:16:19;;;;;;;14.38;7.72;;;;;;;13.33;100.00;101402.53;5004043;28;20044;-60
2023/08/11 02:18:46;;;;;;;11.77;6.65;;;;;;;13.34;100.00;101405.06;5001338;28;20104;-62
2023/08/11 02:21:13;;;;;;;13.85;8.07;;;;;;;13.37;100.00;101404.03;4998201;28;20082;-63
2023/08/11 02:23:41;;;;;;;15.73;7.88;;;;;;;13.38;100.00;101401.31;5002782;28;20053;-64
2023/08/11 02:26:33;;;;;;;12.82;7.00;;;;;;;13.41;100.00;101394.97;5003760;28;20089;-63
2023/08/11 02:31:53;;;;;;;13.00;7.60;;;;;;;13.48;100.00;101396.31;4997014;28;20405;-65
2023/08/11 02:34:25;;;;;;;10.45;6.60;;;;;;;13.50;100.00;101402.38;5003235;28;20142;-63
2023/08/11 02:36:52;;;;;;;12.63;7.72;;;;;;;13.52;100.00;101399.66;5001182;28;20054;-63
2023/08/11 02:39:19;;;;;;;11.60;7.43;;;;;;;13.56;100.00;101395.88;5004325;28;20074;-62
2023/08/11 02:41:47;;;;;;;18.80;7.50;;;;;;;13.59;100.00;101396.53;4998060;28;20065;-64
2023/08/11 02:44:14;;;;;;;16.40;7.32;;;;;;;13.62;100.00;101395.50;4996559;28;20088;-65
2023/08/11 02:46:41;;;;;;;15.07;6.82;;;;;;;13.62;100.00;101398.16;4997877;28;20050;-62
2023/08/11 02:49:09;;;;;;;13.63;6.78;;;;;;;13.65;100.00;101400.63;4999276;28;20073;-65
2023/08/11 02:51:36;;;;;;;16.17;7.78;;;;;;;13.66;100.00;101397.03;4997612;28;20132;-64
2023/08/11 02:54:04;;;;;;;12.43;7.50;;;;;;;13.69;100.00;101399.50;5002687;28;20045;-64
2023/08/11 02:56:31;;;;;;;15.68;7.80;;;;;;;13.72;100.00;101391.38;4995556;28;20046;-62
2023/08/11 02:58:58;;;;;;;12.88;7.75;;;;;;;13.76;100.00;101392.88;5027010;22;20046;-59
2023/08/11 03:01:27;;;;;;;13.63;7.97;;;;;;;13.78;100.00;101393.66;5026973;28;20063;-59
2023/08/11 03:03:56;;;;;;;10.90;7.43;;;;;;;13.83;100.00;101394.22;5024510;28;20046;-56
2023/08/11 03:06:23;;;;;;;16.05;8.27;;;;;;;13.87;100.00;101398.41;5021765;28;20614;-59
2023/08/11 03:08:50;;;;;;;12.05;7.13;;;;;;;13.90;100.00;101397.34;5019377;28;20154;-59
2023/08/11 03:11:17;;;;;;;13.73;7.05;;;;;;;13.92;100.00;101400.78;5019466;28;20049;-55
2023/08/11 03:13:45;;;;;;;15.07;6.93;;;;;;;13.95;100.00;101395.28;5021484;28;20568;-58
2023/08/11 03:16:12;;;;;;;11.98;7.07;;;;;;;13.99;100.00;101396.78;5023315;28;20071;-55
2023/08/11 03:18:40;;;;;;;11.30;6.72;;;;;;;14.01;100.00;101392.28;5023828;28;20081;-51
2023/08/11 03:21:07;;;;;;;16.35;7.38;;;;;;;14.05;100.00;101392.91;5027713;28;20077;-57
2023/08/11 03:23:45;;;;;;;13.00;7.78;;;;;;;14.07;100.00;101385.75;5023667;28;20073;-54
2023/08/11 03:26:13;;;;;;;13.55;7.28;;;;;;;14.08;100.00;101388.28;5022350;28;20077;-59
2023/08/11 03:28:41;;;;;;;10.65;6.85;;;;;;;14.09;100.00;101387.31;5023078;28;20152;-57
2023/08/11 03:31:08;;;;;;;12.07;6.80;;;;;;;14.11;100.00;101389.91;5023724;28;20073;-55
2023/08/11 03:33:35;;;;;;;9.50;6.95;;;;;;;14.12;100.00;101384.50;5016341;28;20103;-58
2023/08/11 03:36:03;;;;;;;10.35;6.35;;;;;;;14.14;100.00;101387.94;5019346;28;20096;-59
2023/08/11 03:38:30;;;;;;;13.73;6.80;;;;;;;14.15;100.00;101389.63;5020955;28;20450;-59
2023/08/11 03:40:57;;;;;;;15.73;7.25;;;;;;;14.18;100.00;101381.50;5020385;28;20065;-59
2023/08/11 03:43:24;;;;;;;13.60;6.75;;;;;;;14.19;100.00;101374.41;5014123;28;20145;-60
2023/08/11 03:45:52;;;;;;;10.63;6.80;;;;;;;14.19;100.00;101377.91;5019194;28;20080;-51
2023/08/11 03:48:19;;;;;;;13.82;7.53;;;;;;;14.21;100.00;101374.28;5023299;28;20145;-60
2023/08/11 03:50:46;;;;;;;9.23;6.38;;;;;;;14.21;100.00;101380.44;5027139;28;20053;-56
2023/08/11 03:53:14;;;;;;;20.35;7.20;;;;;;;14.24;100.00;101390.00;5028516;28;20608;-59
2023/08/11 03:55:46;;;;;;;12.73;6.15;;;;;;;14.26;100.00;101385.44;5024547;28;20092;-59
2023/08/11 03:58:15;;;;;;;12.98;7.25;;;;;;;14.28;100.00;101386.22;5017742;28;20157;-57
2023/08/11 04:00:42;;;;;;;11.88;7.25;;;;;;;14.29;100.00;101383.47;5023260;28;20068;-57
2023/08/11 04:03:09;;;;;;;10.43;6.93;;;;;;;14.30;100.00;101381.66;5021398;28;20046;-59
2023/08/11 04:05:37;;;;;;;12.07;7.00;;;;;;;14.33;100.00;101387.63;5016243;28;20138;-58
2023/08/11 04:08:04;;;;;;;8.23;5.28;;;;;;;14.35;100.00;101384.88;5026168;28;20083;-59
2023/08/11 04:10:33;;;;;;;10.95;6.88;;;;;;;14.37;100.00;101380.34;5025084;28;20718;-57
2023/08/11 04:13:00;;;;;;;11.43;5.88;;;;;;;14.40;100.00;101382.78;5020541;28;20704;-57
2023/08/11 04:15:27;;;;;;;12.50;6.68;;;;;;;14.42;100.00;101387.06;5021573;28;20065;-60
2023/08/11 04:17:54;;;;;;;12.63;6.65;;;;;;;14.45;100.00;101393.94;5024955;28;20085;-57
2023/08/11 04:20:22;;;;;;;11.32;6.28;;;;;;;14.48;100.00;101390.25;5022075;28;20144;-59
2023/08/11 04:22:49;;;;;;;15.10;6.15;;;;;;;14.50;100.00;101394.56;5020938;28;20065;-57
2023/08/11 04:25:17;;;;;;;13.25;6.43;;;;;;;14.54;100.00;101396.03;5027485;28;20079;-59
2023/08/11 04:27:44;;;;;;;16.38;6.03;;;;;;;14.57;100.00;101393.19;5025048;28;20068;-60
2023/08/11 04:30:12;;;;;;;9.68;6.15;;;;;;;14.60;100.00;101390.38;5016391;28;20422;-59
2023/08/11 04:32:40;;;;;;;9.25;5.63;;;;;;;14.64;100.00;101396.34;5021299;28;20140;-57
2023/08/11 04:35:10;;;;;;;13.13;6.05;;;;;;;14.64;100.00;101391.88;5022177;28;20054;-57
2023/08/11 04:37:37;;;;;;;12.13;6.25;;;;;;;14.63;100.00;101392.84;5023148;28;20080;-56
2023/08/11 04:42:57;;;;;;;14.30;6.20;;;;;;;14.64;100.00;101399.81;5019979;28;20538;-60
2023/08/11 04:45:26;;;;;;;8.75;5.78;;;;;;;14.63;100.00;101398.13;5023296;28;20050;-58
2023/08/11 04:47:53;;;;;;;12.65;5.80;;;;;;;14.63;100.00;101400.78;5029040;28;20076;-58
2023/08/11 04:50:21;;;;;;;14.25;5.65;;;;;;;14.66;100.00;101405.88;5028716;28;20049;-59
2023/08/11 04:52:48;;;;;;;17.80;5.78;;;;;;;14.70;100.00;101409.19;5025173;28;20128;-55
2023/08/11 04:55:16;;;;;;;15.88;6.32;;;;;;;14.76;100.00;101407.94;5027611;28;20075;-59
2023/08/11 04:57:43;;;;;;;11.23;6.10;;;;;;;14.85;100.00;101410.84;5035327;28;20081;-57
2023/08/11 05:00:13;;;;;;;10.07;5.30;;;;;;;14.95;99.67;101411.13;5017851;28;20057;-56
2023/08/11 05:02:44;;;;;;;9.50;5.07;;;;;;;15.01;98.98;101410.72;5021025;28;20050;-56
2023/08/11 05:05:13;;;;;;;9.48;6.15;;;;;;;15.04;98.46;101414.94;5024823;28;20059;-56
2023/08/11 05:08:00;;;;;;;16.60;6.15;;;;;;;15.05;97.56;101421.97;5023100;28;20195;-59
2023/08/11 05:10:27;;;;;;;10.15;5.30;;;;;;;15.04;97.33;101420.25;5024998;28;20521;-55
2023/08/11 05:12:54;;;;;;;14.00;6.85;;;;;;;15.04;96.72;101417.59;5018850;28;20826;-59
2023/08/11 05:15:22;;;;;;;13.10;6.20;;;;;;;15.04;96.10;101418.47;5021791;28;20798;-59
2023/08/11 05:17:49;;;;;;;12.00;6.43;;;;;;;15.10;95.72;101422.53;5020109;28;20088;-59
2023/08/11 05:20:17;;;;;;;10.63;5.85;;;;;;;15.19;95.58;101422.78;5025253;28;20045;-55
2023/08/11 05:22:44;;;;;;;11.48;5.65;;;;;;;15.32;95.04;101430.78;5016593;28;20141;-60
2023/08/11 05:25:12;;;;;;;14.57;6.25;;;;;;;15.46;94.20;101421.91;5022869;28;20075;-59
2023/08/11 05:27:39;;;;;;;14.15;6.75;;;;;;;15.59;93.04;101420.13;5026795;28;20081;-55
2023/08/11 05:30:07;;;;;;;12.02;6.43;;;;;;;15.71;92.02;101421.13;5021548;28;20100;-60
2023/08/11 05:32:35;;;;;;;12.35;5.65;;;;;;;15.85;91.07;101423.72;5026879;28;20107;-57
2023/08/11 05:35:02;;;;;;;12.13;6.43;;;;;;;15.96;90.15;101425.63;5025828;28;20057;-59
2023/08/11 05:37:30;;;;;;;11.13;5.30;;;;;;;16.13;88.35;101424.47;5026248;28;20045;-59
2023/08/11 05:39:57;;;;;;;10.18;5.63;;;;;;;16.30;87.74;101428.56;5017479;28;20554;-57
2023/08/11 05:42:25;;;;;;;12.73;6.15;;;;;;;16.44;86.48;101428.47;5022078;28;20084;-56
2023/08/11 05:44:52;;;;;;;16.67;6.00;;;;;;;16.57;85.37;101431.97;5016505;28;20108;-57
2023/08/11 05:47:19;;;;;;;11.38;5.10;;;;;;;16.66;84.13;101436.63;5017338;28;20132;-57
2023/08/11 05:49:47;;;;;;;10.85;5.38;;;;;;;16.68;82.45;101433.84;5019602;28;20061;-59
2023/08/11 05:52:14;;;;;;;16.17;5.68;;;;;;;16.72;82.52;101430.03;5014983;28;20100;-56
2023/08/11 05:57:37;;;;;;;;;;;;;;;16.82;80.75;101430.22;5021603;28;20037;-56
2023/08/11 06:00:05;;;;;;;10.93;4.25;;;;;;;16.91;80.67;101434.88;5027557;28;19921;-59
2023/08/11 06:02:32;;;;;;;11.70;5.07;;;;;;;17.00;79.96;101436.84;5019198;28;20144;-59
2023/08/11 06:05:00;;;;;;;12.02;5.47;;;;;;;17.07;79.61;101437.28;5023925;28;20627;-56
2023/08/11 06:07:27;;;;;;;8.48;4.70;;;;;;;17.14;79.30;101431.38;5018392;28;20848;-57
2023/08/11 06:09:54;;;;;;;15.38;5.32;;;;;;;17.25;78.76;101435.91;5021506;28;20792;-57
2023/08/11 06:12:21;;;;;;;11.23;4.88;;;;;;;17.33;78.03;101436.16;5024429;28;20054;-56
2023/08/11 06:14:49;;;;;;;18.70;5.90;;;;;;;17.47;77.58;101437.81;5018912;28;20145;-59
2023/08/11 06:17:16;;;;;;;18.90;5.25;;;;;;;17.59;77.97;101436.88;5016468;28;20431;-57
2023/08/11 06:19:43;;;;;;;9.43;4.05;;;;;;;17.63;75.64;101445.50;5022596;28;20085;-52
2023/08/11 06:22:10;;;;;;;15.20;4.30;;;;;;;17.62;75.14;101438.47;5023331;28;20130;-57
2023/08/11 06:24:38;;;;;;;14.82;4.22;;;;;;;17.68;73.94;101443.34;5017977;28;20121;-58
2023/08/11 06:27:06;;;;;;;9.77;3.58;;;;;;;17.68;72.90;101438.00;5026090;28;20153;-56
2023/08/11 06:29:34;;;;;;;17.70;4.93;;;;;;;17.75;72.54;101451.75;5019424;28;20125;-56
2023/08/11 06:34:54;;;;;;;15.13;4.15;;;;;;;17.91;71.44;101446.94;5022838;28;20125;-55
2023/08/11 06:37:21;;;;;;;8.18;4.53;;;;;;;17.95;71.13;101440.41;5020091;28;20067;-57
2023/08/11 06:39:48;;;;;;;10.75;4.43;;;;;;;18.07;71.26;101444.81;5017849;28;20542;-59
2023/08/11 06:42:15;;;;;;;15.70;4.50;;;;;;;18.21;71.12;101444.56;5012292;28;20056;-58
2023/08/11 06:44:44;;;;;;;13.25;4.25;;;;;;;18.35;70.96;101451.47;5024667;28;20541;-56
2023/08/11 06:47:11;;;;;;;8.93;3.80;;;;;;;18.51;71.03;101456.47;5015797;28;20133;-56
2023/08/11 06:49:38;;;;;;;11.82;4.65;;;;;;;18.58;70.49;101451.47;5019060;28;20050;-56
2023/08/11 06:52:05;;;;;;;13.98;4.45;;;;;;;18.60;69.89;101453.06;5018769;28;20074;-58
2023/08/11 06:54:34;;;;;;;7.35;4.03;;;;;;;18.64;69.46;101458.97;5019034;28;20046;-58
2023/08/11 06:57:04;;;;;;;10.25;4.18;;;;;;;18.66;69.09;101468.56;5013402;28;20070;-57
2023/08/11 06:59:31;;;;;;;11.77;4.00;;;;;;;18.67;68.42;101464.09;5021605;28;20059;-58
2023/08/11 07:01:58;;;;;;;12.93;3.55;;;;;;;18.67;68.05;101474.75;5022807;28;20064;-59
2023/08/11 07:04:26;;;;;;;6.30;3.75;;;;;;;18.71;68.43;101478.91;5020708;28;20124;-59
2023/08/11 07:06:54;;;;;;;12.90;3.90;;;;;;;18.62;67.74;101471.59;5011881;28;20387;-59
2023/08/11 07:09:21;;;;;;;14.38;4.55;;;;;;;18.60;68.04;101477.06;5016681;28;20053;-59
2023/08/11 07:11:49;;;;;;;7.65;3.72;;;;;;;18.64;67.97;101477.66;5022979;28;20502;-60
2023/08/11 07:14:16;;;;;;;11.43;4.55;;;;;;;18.69;68.07;101476.38;5025812;28;20076;-58
2023/08/11 07:16:43;;;;;;;11.65;3.80;;;;;;;18.83;68.14;101477.94;5021990;28;20510;-60
2023/08/11 07:19:10;;;;;;;7.65;3.63;;;;;;;18.75;67.42;101480.34;5022155;28;20515;-60
2023/08/11 07:21:38;;;;;;;6.93;3.45;;;;;;;18.84;67.23;101484.97;5017241;28;20050;-58
2023/08/11 07:24:05;;;;;;;9.32;4.22;;;;;;;18.97;67.15;101479.50;5021727;28;20127;-59
2023/08/11 07:26:32;;;;;;;7.85;4.18;;;;;;;19.19;67.13;101486.59;5021887;28;20057;-54
2023/08/11 07:29:00;;;;;;;11.90;4.35;;;;;;;19.34;66.86;101489.84;5022511;28;20121;-55
2023/08/11 07:31:27;;;;;;;9.48;3.88;;;;;;;19.56;66.02;101488.91;5018730;28;20556;-57
2023/08/11 07:33:54;;;;;;;7.68;3.88;;;;;;;19.72;65.06;101482.19;5017013;28;20061;-57
2023/08/11 07:36:21;;;;;;;14.65;3.65;;;;;;;19.87;64.29;101480.06;5022313;28;20436;-59
2023/08/11 07:38:49;;;;;;;11.95;4.57;;;;;;;20.02;63.63;101482.41;5016945;28;20137;-58
2023/08/11 07:41:16;;;;;;;9.75;3.92;;;;;;;20.19;62.93;101484.47;5016341;28;20046;-57
2023/08/11 07:43:43;;;;;;;12.20;3.80;;;;;;;20.31;62.60;101482.56;5021623;28;20149;-58
2023/08/11 07:46:10;;;;;;;8.52;3.47;;;;;;;20.25;61.13;101489.28;5017794;28;20052;-56
2023/08/11 07:48:38;;;;;;;8.35;2.80;;;;;;;20.47;60.83;101494.50;5020147;28;20131;-56
2023/08/11 07:51:05;;;;;;;15.45;3.17;;;;;;;20.46;58.37;101494.63;5022114;28;20132;-57
2023/08/11 07:53:32;;;;;;;7.75;3.50;;;;;;;20.48;58.65;101479.31;5016503;28;20052;-57
2023/08/11 07:55:59;;;;;;;8.82;3.05;;;;;;;20.63;58.44;101488.69;5020121;28;20045;-58
2023/08/11 07:58:26;;;;;;;11.57;3.05;;;;;;;20.80;56.84;101494.34;5015041;28;20133;-58
2023/08/11 08:00:54;;;;;;;5.95;2.03;;;;;;;20.81;55.22;101488.88;5016065;28;20060;-57
2023/08/11 08:03:21;;;;;;;9.88;3.00;;;;;;;20.78;54.11;101490.97;5016709;28;20073;-59
2023/08/11 08:05:49;;;;;;;14.68;3.15;;;;;;;20.83;53.69;101486.91;5023038;28;20180;-59
2023/08/11 08:08:17;;;;;;;5.68;2.08;;;;;;;20.97;53.71;101496.38;5022005;28;20538;-57
2023/08/11 08:10:44;;;;;;;8.77;2.33;;;;;;;21.06;53.32;101500.91;5023731;28;20140;-57
2023/08/11 08:13:11;;;;;;;5.95;2.22;;;;;;;21.07;52.28;101491.06;5018227;28;20056;-59
2023/08/11 08:15:39;;;;;;;5.70;2.35;;;;;;;20.93;53.03;101484.25;5023965;28;20060;-55
2023/08/11 08:18:06;;;;;;;6.05;2.22;;;;;;;20.87;53.29;101490.16;5017707;28;20076;-59
2023/08/11 08:20:33;;;;;;;7.25;2.20;;;;;;;20.95;53.61;101479.63;5021948;28;20055;-54
2023/08/11 08:23:00;;;;;;;6.07;2.10;;;;;;;20.89;51.99;101483.72;5024197;28;20057;-57
2023/08/11 08:25:28;;;;;;;6.65;2.08;;;;;;;20.79;52.60;101481.97;5017381;28;20555;-57
2023/08/11 08:27:55;;;;;;;7.50;2.17;;;;;;;20.79;52.16;101477.44;5018956;28;20045;-56
2023/08/11 08:30:33;;;;;;;6.38;2.03;;;;;;;20.91;50.81;101479.06;5016953;28;20467;-59
2023/08/11 08:33:00;;;;;;;8.35;2.20;;;;;;;20.88;50.78;101484.66;5021136;28;20069;-58
2023/08/11 08:35:27;;;;;;;7.68;2.58;;;;;;;21.04;51.15;101486.84;5018003;28;20099;-58
2023/08/11 08:37:55;;;;;;;3.97;2.00;;;;;;;21.10;49.93;101488.94;5020391;28;20132;-57
2023/08/11 08:40:23;;;;;;;11.85;1.85;;;;;;;21.04;49.98;101494.03;5016463;28;20061;-58
2023/08/11 08:42:50;;;;;;;6.97;2.13;;;;;;;21.05;49.50;101495.72;5021649;28;20107;-57
2023/08/11 08:45:18;;;;;;;8.13;2.13;;;;;;;21.19;49.87;101480.09;5019042;28;20410;-59
2023/08/11 08:51:54;;;;;;;4.13;1.80;;;;;;;21.55;49.68;101493.84;5010038;28;20069;-53
2023/08/11 08:54:21;;;;;;;7.93;1.70;;;;;;;21.53;49.99;101498.50;5016401;28;20413;-57
2023/08/11 08:56:51;;;;;;;7.25;1.35;;;;;;;21.67;49.66;101495.41;5018187;28;20494;-59
2023/08/11 08:59:18;;;;;;;6.68;1.92;;;;;;;21.72;48.94;101486.94;5019127;28;20076;-60
2023/08/11 09:01:45;;;;;;;6.05;2.05;;;;;;;21.77;49.05;101499.91;5018497;28;20046;-58
2023/08/11 09:04:14;;;;;;;6.93;1.85;;;;;;;21.81;49.38;101490.59;5022102;28;20061;-59
2023/08/11 09:06:42;;;;;;;2.90;1.50;;;;;;;21.97;48.70;101486.34;5018109;28;20089;-60
2023/08/11 09:09:10;;;;;;;4.18;1.45;;;;;;;22.16;48.74;101487.34;5023502;28;20076;-57
2023/08/11 09:11:40;;;;;;;7.90;1.75;;;;;;;22.32;48.56;101489.38;5017732;28;20594;-58
2023/08/11 09:14:08;;;;;;;5.28;2.03;;;;;;;22.53;48.47;101487.34;5022688;28;20115;-57
2023/08/11 09:16:39;;;;;;;5.43;1.90;;;;;;;22.68;48.02;101487.69;5012021;28;20197;-58
2023/08/11 09:19:08;;;;;;;3.03;1.38;;;;;;;22.78;47.65;101501.91;5011399;28;20204;-59
2023/08/11 09:21:35;;;;;;;5.95;1.83;;;;;;;22.48;47.13;101489.63;5019855;28;20068;-59
2023/08/11 09:24:03;;;;;;;4.90;1.42;;;;;;;22.24;47.68;101493.66;5023364;28;20137;-55
2023/08/11 09:26:31;;;;;;;6.28;1.58;;;;;;;22.17;47.65;101500.59;5026678;28;20083;-59
2023/08/11 09:28:59;;;;;;;6.93;1.80;;;;;;;22.01;48.05;101494.94;5028160;28;20239;-60
2023/08/11 09:31:26;;;;;;;5.65;1.52;;;;;;;22.16;47.97;101498.91;5022306;28;20145;-59
2023/08/11 09:33:53;;;;;;;4.93;1.55;;;;;;;22.59;47.90;101493.97;5018348;28;20121;-59
2023/08/11 09:36:20;;;;;;;4.75;1.55;;;;;;;22.77;47.69;101491.34;5024426;28;20051;-59
2023/08/11 09:38:49;;;;;;;6.00;2.22;;;;;;;23.10;47.85;101489.91;5025015;28;20552;-57
2023/08/11 09:41:16;;;;;;;12.18;1.98;;;;;;;23.49;46.71;101498.56;5016072;28;20046;-59
2023/08/11 09:43:53;;;;;;;7.55;1.50;;;;;;;23.87;45.28;101500.13;5018709;28;20055;-59
2023/08/11 09:46:49;;;;;;;7.38;1.98;;;;;;;23.98;45.06;101513.28;5016726;28;20129;-58
2023/08/11 09:49:17;;;;;;;6.55;1.20;;;;;;;23.84;44.56;101516.53;5034702;28;20064;-74
2023/08/11 09:51:45;;;;;;;3.67;1.20;;;;;;;23.77;44.63;101509.25;5032221;28;20150;-73
2023/08/11 09:54:14;;;;;;;6.47;1.58;;;;;;;23.61;45.33;101510.78;5038668;28;20053;-73
2023/08/11 09:56:43;;;;;;;3.72;1.00;;;;;;;23.69;45.50;101512.72;5008360;28;20049;-74
2023/08/11 09:59:20;;;;;;;5.57;1.05;;;;;;;23.51;45.70;101515.38;5032290;28;20112;-74
2023/08/11 10:01:48;;;;;;;3.40;1.15;;;;;;;23.56;47.02;101509.56;5028165;28;20448;-74
2023/08/11 10:04:29;;;;;;;7.05;1.83;;;;;;;23.63;45.86;101518.66;5026515;28;20205;-73
2023/08/11 10:07:01;;;;;;;4.03;1.25;;;;;;;23.35;46.66;101526.78;5030216;28;20065;-73
2023/08/11 10:09:30;;;;;;;5.45;1.33;;;;;;;23.46;47.13;101515.84;5014169;28;20435;-72
2023/08/11 10:11:59;;;;;;;2.90;1.20;;;;;;;23.59;46.54;101517.28;5015091;28;20080;-73
2023/08/11 10:14:27;;;;;;;1.65;1.23;;;;;;;23.67;46.43;101510.19;4999025;28;20143;-73
2023/08/11 10:16:55;;;;;;;4.00;1.00;;;;;;;24.24;45.82;101505.25;5007294;28;20049;-72
2023/08/11 10:19:23;;;;;;;2.88;1.10;;;;;;;24.63;43.92;101507.53;5009686;28;20049;-73
2023/08/11 10:21:50;;;;;;;2.55;0.82;;;;;;;24.39;44.22;101502.84;4999580;28;20053;-72
2023/08/11 10:30:06;;;;;;;3.67;1.00;;;;;;;24.95;44.76;101501.44;5035335;28;20103;-73
2023/08/11 10:32:34;;;;;;;3.42;1.20;;;;;;;24.79;44.20;101504.06;5037851;28;20057;-73
2023/08/11 10:35:01;;;;;;;4.32;1.35;;;;;;;24.24;44.14;101504.41;5035217;28;20115;-73
2023/08/11 10:37:32;;;;;;;7.22;1.00;;;;;;;23.95;45.63;101515.44;5023261;28;20085;-73
2023/08/11 10:40:03;;;;;;;2.63;1.13;;;;;;;23.65;46.29;101501.44;5032976;28;20072;-72
2023/08/11 10:42:30;;;;;;;4.25;1.17;;;;;;;23.55;47.14;101503.34;5035506;28;20042;-73
2023/08/11 10:45:11;;;;;;;4.95;1.02;;;;;;;23.83;45.95;101500.56;5015395;28;20137;-73
2023/08/11 10:47:55;;;;;;;6.55;1.23;;;;;;;24.05;46.00;101483.94;5028915;28;20045;-73
2023/08/11 10:50:22;;;;;;;4.97;1.23;;;;;;;24.46;46.16;101474.28;5015619;28;20560;-73
2023/08/11 10:53:20;;;;;;;5.82;1.35;;;;;;;24.99;45.30;101485.78;5045358;28;20053;-73
2023/08/11 10:56:01;;;;;;;5.28;1.63;;;;;;;24.98;45.33;101490.31;5015990;28;20058;-72
2023/08/11 10:58:30;;;;;;;3.63;1.10;;;;;;;24.95;44.71;101487.13;5017443;28;20515;-73
2023/08/11 11:00:58;;;;;;;2.75;1.00;;;;;;;24.61;44.53;101484.47;4977847;28;20109;-73
2023/08/11 11:03:26;;;;;;;4.13;1.30;;;;;;;24.57;44.96;101486.63;5040170;28;20072;-73
2023/08/11 11:05:53;;;;;;;3.50;1.00;;;;;;;24.31;45.60;101492.00;5015765;28;20053;-72
2023/08/11 11:08:21;;;;;;;2.40;1.05;;;;;;;24.37;46.05;101487.88;5034112;28;20155;-73
2023/08/11 11:10:48;;;;;;;2.38;1.05;;;;;;;24.54;45.55;101488.78;5019778;28;20045;-73
2023/08/11 11:13:17;;;;;;;5.47;1.50;;;;;;;24.51;45.35;101479.19;5038044;28;20037;-73
2023/08/11 11:15:44;;;;;;;3.15;1.65;;;;;;;24.78;46.04;101480.00;5020540;28;20491;-73
2023/08/11 11:18:12;;;;;;;2.40;1.05;;;;;;;25.05;45.65;101479.75;5019816;28;20136;-73
2023/08/11 11:20:39;;;;;;;4.40;1.45;;;;;;;25.15;45.46;101472.38;5010560;28;20156;-73
2023/08/11 11:23:07;;;;;;;1.55;0.90;;;;;;;25.23;45.58;101469.72;5018747;28;20076;-74
2023/08/11 11:25:34;;;;;;;5.28;1.52;;;;;;;25.25;45.03;101470.38;5001004;28;20413;-73
2023/08/11 11:28:01;;;;;;;3.90;1.42;;;;;;;25.33;45.23;101474.09;5014957;28;20102;-74
2023/08/11 11:30:29;;;;;;;4.40;1.35;;;;;;;25.34;45.23;101468.53;5037240;28;20156;-73
2023/08/11 11:32:58;;;;;;;5.70;1.48;;;;;;;25.32;44.57;101473.28;5034710;28;20049;-73
2023/08/11 11:35:27;;;;;;;2.97;1.15;;;;;;;25.51;44.79;101470.25;5039023;28;20178;-73
2023/08/11 11:37:54;;;;;;;2.75;1.00;;;;;;;25.77;45.44;101477.38;5028826;28;20077;-72
2023/08/11 11:40:22;;;;;;;3.38;1.10;;;;;;;25.76;44.26;101467.59;5042460;28;20065;-73
2023/08/11 11:42:49;;;;;;;2.08;1.20;;;;;;;25.35;44.03;101470.25;4995443;28;20053;-73
2023/08/11 11:45:17;;;;;;;3.95;1.38;;;;;;;25.36;44.64;101474.63;5001474;28;20084;-73
2023/08/11 11:47:46;;;;;;;4.65;1.10;;;;;;;25.59;45.18;101458.63;5011168;28;20372;-74
2023/08/11 11:50:16;;;;;;;4.43;1.30;;;;;;;25.83;44.64;101465.91;5018881;28;20052;-72
2023/08/11 11:52:47;;;;;;;3.60;1.38;;;;;;;25.90;43.71;101466.91;5028497;28;20143;-73